Leesburg, VA

11:42 PM EST on November 22, 2017 (GMT -0500)
Leesburg Executive

Weather History for KJYO - February, 2014

Change the Weather History Date:

Wednesday, February 26, 2014

  Actual Average (KIAD) Record (KIAD)
Temperature  
Mean Temperature 27 °F -  
Max Temperature 33 °F 45 °F 69 °F (1977)
Min Temperature 19 °F 26 °F 7 °F (1970)
Degree Days  
Heating Degree Days 38    
Moisture  
Dew Point 18 °F    
Average Humidity 63    
Maximum Humidity 100    
Minimum Humidity 38    
Precipitation  
Precipitation 0.01 in - - ()
Sea Level Pressure  
Sea Level Pressure 29.93 in    
Wind  
Wind Speed 7 mph (NNW)    
Max Wind Speed 18 mph    
Max Gust Speed 26 mph    
Visibility 9 miles    
Events Snow    
Averages and records for this station are not official NWS values.
T = Trace of Precipitation, MM = Missing Value Source: NWS Daily Summary

Daily Weather History Graph

Daily Weather History Graph

Search for Another Location

Airport or City:

Trip Planner

Search our weather history database for the weather conditions in past years. The results will help you decide how hot, cold, wet, or windy it might be!

Date:

Astronomy

Feb. 26, 2014 Rise Set
Actual Time 6:47 AM EST 5:59 PM EST
Civil Twilight 6:20 AM EST 6:26 PM EST
Nautical Twilight 5:49 AM EST 6:57 PM EST
Astronomical Twilight 5:18 AM EST 7:28 PM EST
Moon 4:30 AM EST (2/26) 3:12 PM EST (2/26)
Length of Visible Light 12h 06m
Length of Day
11h 12m
Waning Crescent, 10% of the Moon is Illuminated
Feb 26
Waning Crescent
Mar 1
New
Mar 8
First Quarter
Mar 16
Full
Mar 23
Last Quarter

Hourly Weather History & Observations

Time (EST) Temp. Windchill Dew Point Humidity Pressure Visibility Wind Dir Wind Speed Gust Speed Precip Events Conditions
12:15 AM 30.2 °F 24.3 °F 17.6 °F 60% 30.01 in 10.0 mi NW 5.8 mph - N/A   Clear
12:35 AM 30.2 °F 25.4 °F 17.6 °F 60% 30.01 in 10.0 mi NW 4.6 mph - N/A   Clear
12:55 AM 28.4 °F 23.3 °F 19.4 °F 69% 30.00 in 10.0 mi WNW 4.6 mph - N/A   Clear
1:15 AM 30.2 °F 26.7 °F 19.4 °F 64% 30.00 in 10.0 mi WNW 3.5 mph - N/A   Clear
1:35 AM 30.2 °F 25.4 °F 19.4 °F 64% 29.98 in 10.0 mi NW 4.6 mph - N/A   Clear
1:55 AM 30.2 °F - 19.4 °F 64% 29.98 in 10.0 mi Calm Calm - N/A   Mostly Cloudy
2:15 AM 30.2 °F 26.7 °F 19.4 °F 64% 29.96 in 10.0 mi SSE 3.5 mph - N/A   Overcast
2:35 AM 30.2 °F - 21.2 °F 69% 29.95 in 10.0 mi North - - N/A   Overcast
2:55 AM 30.2 °F - 19.4 °F 64% 29.94 in 10.0 mi North - - N/A   Overcast
3:15 AM 30.2 °F - 19.4 °F 64% 29.93 in 10.0 mi North - - N/A   Mostly Cloudy
3:35 AM 30.2 °F - 21.2 °F 69% 29.93 in 10.0 mi North - - N/A   Overcast
3:55 AM 30.2 °F 24.3 °F 21.2 °F 69% 29.93 in 10.0 mi SSE 5.8 mph - N/A   Overcast
4:15 AM 30.2 °F 25.4 °F 21.2 °F 69% 29.93 in 10.0 mi SSE 4.6 mph - N/A   Overcast
4:35 AM 30.2 °F 24.3 °F 21.2 °F 69% 29.93 in 10.0 mi SSE 5.8 mph - N/A   Overcast
4:55 AM 30.2 °F - 21.2 °F 69% 29.93 in 10.0 mi Calm Calm - N/A   Overcast
5:15 AM 30.2 °F 25.4 °F 21.2 °F 69% 29.94 in 10.0 mi North 4.6 mph - N/A   Overcast
5:35 AM 30.2 °F - 23.0 °F 75% 29.94 in 10.0 mi Calm Calm - N/A   Overcast
5:55 AM 30.2 °F 25.4 °F 23.0 °F 75% 29.95 in 7.0 mi West 4.6 mph - N/A Snow Light Snow
6:10 AM 30.2 °F - 23.0 °F 75% 29.94 in 5.0 mi North - - N/A Snow Light Snow
6:35 AM 30.2 °F 25.4 °F 24.8 °F 80% 29.94 in 10.0 mi SW 4.6 mph - N/A Snow Light Snow
6:55 AM 30.2 °F 22.6 °F 26.6 °F 86% 29.94 in 4.0 mi South 8.1 mph - N/A Snow Light Snow
7:15 AM 28.4 °F 19.7 °F 28.4 °F 100% 29.95 in 5.0 mi South 9.2 mph - 0.01 in Snow Light Snow
7:35 AM 28.4 °F 19.1 °F 28.4 °F 100% 29.95 in 3.0 mi SSW 10.4 mph - 0.01 in Snow Light Snow
7:55 AM 28.4 °F 22.2 °F 28.4 °F 100% 29.97 in 1.2 mi WSW 5.8 mph - 0.01 in Snow Light Snow
8:15 AM 30.2 °F 23.4 °F 28.4 °F 93% 29.98 in 4.0 mi SW 6.9 mph - N/A Snow Light Snow
8:35 AM 30.2 °F 24.3 °F 30.2 °F 100% 29.99 in 2.5 mi SW 5.8 mph - N/A Snow Light Snow
8:55 AM 30.2 °F 24.3 °F 30.2 °F 100% 30.01 in 2.0 mi West 5.8 mph - N/A Snow Light Snow
9:15 AM 30.2 °F - 30.2 °F 100% 30.00 in 4.0 mi North - - N/A Snow Light Snow
9:35 AM 30.2 °F 22.6 °F 28.4 °F 93% 30.01 in 1.8 mi WNW 8.1 mph - N/A Snow Light Snow
9:55 AM 30.2 °F 22.6 °F 28.4 °F 93% 30.00 in 0.8 mi NNW 8.1 mph - N/A Snow Light Snow
10:15 AM 32.0 °F 23.0 °F 26.6 °F 80% 29.98 in 10.0 mi NW 11.5 mph - N/A   Mostly Cloudy
10:35 AM 32.0 °F 21.2 °F 24.8 °F 75% 29.98 in 10.0 mi NNW 16.1 mph 19.6 mph N/A   Mostly Cloudy
10:55 AM 33.8 °F 24.8 °F 26.6 °F 75% 29.98 in 10.0 mi NW 12.7 mph 19.6 mph N/A   Mostly Cloudy
11:15 AM 32.0 °F 20.8 °F 21.2 °F 64% 29.97 in 10.0 mi NW 17.3 mph - N/A   Overcast
11:35 AM 33.8 °F 23.9 °F 21.2 °F 60% 29.96 in 10.0 mi NW 15.0 mph 20.7 mph N/A   Overcast
11:55 AM 33.8 °F 23.2 °F 21.2 °F 60% 29.96 in 10.0 mi NNW 17.3 mph 24.2 mph N/A   Overcast
12:15 PM 33.8 °F 23.5 °F 21.2 °F 60% 29.94 in 10.0 mi NNW 16.1 mph 26.5 mph N/A   Mostly Cloudy
12:35 PM 32.0 °F 22.5 °F 19.4 °F 60% 29.94 in 10.0 mi NW 12.7 mph 18.4 mph N/A   Mostly Cloudy
12:55 PM 33.8 °F 23.5 °F 17.6 °F 52% 29.93 in 10.0 mi NW 16.1 mph 24.2 mph N/A   Mostly Cloudy
1:15 PM 33.8 °F 23.9 °F 17.6 °F 52% 29.93 in 10.0 mi NNW 15.0 mph 23.0 mph N/A   Overcast
1:35 PM 33.8 °F 26.4 °F 17.6 °F 52% 29.91 in 10.0 mi NNW 9.2 mph - N/A   Overcast
1:55 PM 33.8 °F 23.5 °F 14.0 °F 44% 29.90 in 10.0 mi NW 16.1 mph 23.0 mph N/A   Mostly Cloudy
2:15 PM 33.8 °F 22.8 °F 14.0 °F 44% 29.90 in 10.0 mi NW 18.4 mph 26.5 mph N/A   Scattered Clouds
2:35 PM 33.8 °F 25.3 °F 12.2 °F 41% 29.89 in 10.0 mi WNW 11.5 mph 24.2 mph N/A   Clear
2:55 PM 33.8 °F 23.9 °F 12.2 °F 41% 29.89 in 10.0 mi NNW 15.0 mph 20.7 mph N/A   Scattered Clouds
3:15 PM 33.8 °F 23.2 °F 12.2 °F 41% 29.88 in 10.0 mi North 17.3 mph 21.9 mph N/A   Clear
3:35 PM 33.8 °F 23.5 °F 12.2 °F 41% 29.88 in 10.0 mi NNW 16.1 mph 21.9 mph N/A   Clear
3:55 PM 33.8 °F 26.4 °F 12.2 °F 41% 29.87 in 10.0 mi North 9.2 mph 20.7 mph N/A   Clear
4:15 PM 33.8 °F 27.0 °F 10.4 °F 38% 29.87 in 10.0 mi NW 8.1 mph 19.6 mph N/A   Clear
4:35 PM 33.8 °F 23.2 °F 10.4 °F 38% 29.86 in 10.0 mi NNW 17.3 mph 23.0 mph N/A   Clear
4:55 PM 32.0 °F 22.5 °F 10.4 °F 41% 29.87 in 10.0 mi NNW 12.7 mph 19.6 mph N/A   Clear
5:15 PM 32.0 °F 22.5 °F 10.4 °F 41% 29.86 in 10.0 mi NNW 12.7 mph - N/A   Clear
5:35 PM 32.0 °F 22.5 °F 8.6 °F 38% 29.86 in 10.0 mi North 12.7 mph - N/A   Clear
5:55 PM 32.0 °F 25.6 °F 10.4 °F 41% 29.87 in 10.0 mi North 6.9 mph 10.4 mph N/A   Clear
6:15 PM 30.2 °F 21.9 °F 8.6 °F 40% 29.87 in 10.0 mi North 9.2 mph - N/A   Clear
6:35 PM 30.2 °F 23.4 °F 10.4 °F 44% 29.88 in 10.0 mi North 6.9 mph - N/A   Clear
6:55 PM 30.2 °F 23.4 °F 10.4 °F 44% 29.88 in 10.0 mi North 6.9 mph - N/A   Clear
7:15 PM 30.2 °F 25.4 °F 8.6 °F 40% 29.88 in 10.0 mi NNE 4.6 mph - N/A   Clear
7:35 PM 28.4 °F 23.3 °F 10.4 °F 47% 29.88 in 10.0 mi NE 4.6 mph - N/A   Clear
7:55 PM 28.4 °F 22.2 °F 10.4 °F 47% 29.88 in 10.0 mi NNE 5.8 mph - N/A   Clear
8:15 PM 28.4 °F 22.2 °F 10.4 °F 47% 29.88 in 10.0 mi NE 5.8 mph - N/A   Clear
8:35 PM 28.4 °F 22.2 °F 10.4 °F 47% 29.87 in 10.0 mi NNE 5.8 mph - N/A   Clear
8:55 PM 26.6 °F 22.6 °F 10.4 °F 51% 29.88 in 10.0 mi ENE 3.5 mph - N/A   Clear
9:15 PM 26.6 °F 22.6 °F 10.4 °F 51% 29.88 in 10.0 mi NE 3.5 mph - N/A   Clear
9:35 PM 26.6 °F - 10.4 °F 51% 29.88 in 10.0 mi Calm Calm - N/A   Clear
9:55 PM 26.6 °F - 10.4 °F 51% 29.88 in 10.0 mi Calm Calm - N/A   Clear
10:15 PM 24.8 °F - 10.4 °F 54% 29.89 in 10.0 mi Calm Calm - N/A   Clear
10:35 PM 23.0 °F - 12.2 °F 63% 29.89 in 10.0 mi Calm Calm - N/A   Clear
10:55 PM 21.2 °F - 12.2 °F 68% 29.89 in 10.0 mi North - - N/A   Clear
11:15 PM 21.2 °F - 14.0 °F 74% 29.88 in 10.0 mi North - - N/A   Clear
11:35 PM 21.2 °F - 14.0 °F 74% 29.88 in 10.0 mi Calm Calm - N/A   Clear
11:50 PM 19.4 °F - 14.0 °F 80% 29.88 in 10.0 mi North - - N/A   Clear